Time;durP1;ratioP1;P1;durP2;ratioP2;P2;SDS_P1;SDS_P2;PMS_P1;PMS_P2;Temp;Humidity;BMP_temperature;BMP_pressure;BME280_temperature;BME280_humidity;BME280_pressure;Samples;Min_cycle;Max_cycle;Signal;HPM_P1;HPM_P2
2023/09/18 00:01:52;;;;;;;31.23;27.10;;;;;;;;;;5034630;28;20073;-77
2023/09/18 00:04:18;;;;;;;30.52;26.55;;;;;;;;;;5016921;28;20060;-77
2023/09/18 00:06:44;;;;;;;27.95;25.02;;;;;;;;;;5016868;28;20045;-77
2023/09/18 00:09:13;;;;;;;30.13;26.98;;;;;;;;;;5016896;28;20045;-77
2023/09/18 00:11:39;;;;;;;30.73;27.50;;;;;;;;;;5034798;28;20045;-78
2023/09/18 00:14:05;;;;;;;32.47;28.50;;;;;;;;;;5016492;28;20506;-75
2023/09/18 00:16:32;;;;;;;31.90;28.63;;;;;;;;;;5018778;28;20038;-76
2023/09/18 00:18:58;;;;;;;34.95;31.13;;;;;;;;;;5012135;28;20058;-76
2023/09/18 00:21:25;;;;;;;32.20;28.38;;;;;;;;;;5025526;28;20037;-77
2023/09/18 00:23:51;;;;;;;33.25;29.75;;;;;;;;;;5015267;28;20151;-75
2023/09/18 00:26:17;;;;;;;34.13;30.48;;;;;;;;;;5015583;28;20042;-76
2023/09/18 00:28:43;;;;;;;32.92;29.40;;;;;;;;;;5016285;28;20053;-76
2023/09/18 00:31:10;;;;;;;32.38;28.83;;;;;;;;;;5033346;28;20045;-76
2023/09/18 00:33:38;;;;;;;36.70;32.80;;;;;;;;;;5015146;28;20096;-76
2023/09/18 00:36:04;;;;;;;37.25;33.17;;;;;;;;;;5012725;28;20054;-77
2023/09/18 00:38:30;;;;;;;36.90;32.90;;;;;;;;;;5028168;28;20038;-77
2023/09/18 00:40:56;;;;;;;42.75;36.53;;;;;;;;;;4999282;28;20045;-77
2023/09/18 00:43:22;;;;;;;39.78;35.22;;;;;;;;;;5015883;28;20041;-76
2023/09/18 00:45:48;;;;;;;39.95;35.25;;;;;;;;;;5013458;28;20045;-76
2023/09/18 00:48:15;;;;;;;40.42;36.03;;;;;;;;;;4994203;28;20057;-76
2023/09/18 00:50:41;;;;;;;40.58;36.28;;;;;;;;;;5000728;28;20500;-77
2023/09/18 00:53:09;;;;;;;39.83;35.63;;;;;;;;;;5033984;28;20390;-76
2023/09/18 00:55:37;;;;;;;38.17;34.00;;;;;;;;;;5033560;28;20175;-76
2023/09/18 00:58:03;;;;;;;41.10;35.60;;;;;;;;;;5033580;28;20041;-77
2023/09/18 01:00:29;;;;;;;40.72;35.13;;;;;;;;;;5033627;28;20394;-76
2023/09/18 01:02:56;;;;;;;38.03;33.83;;;;;;;;;;5016123;28;20042;-77
2023/09/18 01:05:21;;;;;;;39.30;35.08;;;;;;;;;;5033341;28;20041;-77
2023/09/18 01:07:48;;;;;;;40.50;35.17;;;;;;;;;;5015721;28;20049;-78
2023/09/18 01:10:16;;;;;;;38.95;34.17;;;;;;;;;;5031572;28;20047;-77
2023/09/18 01:12:47;;;;;;;35.67;31.92;;;;;;;;;;5014186;28;20045;-77
2023/09/18 01:15:19;;;;;;;35.72;32.03;;;;;;;;;;5015481;28;20081;-77
2023/09/18 01:17:46;;;;;;;36.30;32.15;;;;;;;;;;4997166;28;20487;-77
2023/09/18 01:20:12;;;;;;;35.90;32.10;;;;;;;;;;5010032;28;20555;-77
2023/09/18 01:22:38;;;;;;;36.97;32.47;;;;;;;;;;4985330;28;20057;-77
2023/09/18 01:25:06;;;;;;;34.55;30.85;;;;;;;;;;4995528;28;20498;-77
2023/09/18 01:27:32;;;;;;;35.00;31.15;;;;;;;;;;5011520;28;20056;-77
2023/09/18 01:29:58;;;;;;;37.80;33.58;;;;;;;;;;5011798;28;20077;-77
2023/09/18 01:32:27;;;;;;;36.53;32.30;;;;;;;;;;4996989;28;20041;-75
2023/09/18 01:34:54;;;;;;;36.15;31.90;;;;;;;;;;5020799;28;20056;-74
2023/09/18 01:37:21;;;;;;;38.30;33.10;;;;;;;;;;5000786;28;20473;-77
2023/09/18 01:39:48;;;;;;;34.70;31.00;;;;;;;;;;5013755;28;20038;-77
2023/09/18 01:42:15;;;;;;;36.15;31.73;;;;;;;;;;5013509;28;20045;-77
2023/09/18 01:44:41;;;;;;;36.45;32.42;;;;;;;;;;5012907;28;20041;-77
2023/09/18 01:47:08;;;;;;;37.80;33.70;;;;;;;;;;4986342;28;20037;-77
2023/09/18 01:49:38;;;;;;;41.15;35.03;;;;;;;;;;5012179;28;20037;-77
2023/09/18 01:52:05;;;;;;;39.75;34.53;;;;;;;;;;4995811;28;20046;-77
2023/09/18 01:54:34;;;;;;;40.47;36.15;;;;;;;;;;4994015;28;20042;-77
2023/09/18 01:57:01;;;;;;;38.47;34.22;;;;;;;;;;4993968;28;20045;-77
2023/09/18 01:59:27;;;;;;;39.40;35.13;;;;;;;;;;4993761;28;20046;-77
2023/09/18 02:01:53;;;;;;;38.65;34.20;;;;;;;;;;4993811;28;20046;-77
2023/09/18 02:04:20;;;;;;;38.97;34.65;;;;;;;;;;4993180;28;20129;-77
2023/09/18 02:06:47;;;;;;;38.20;34.00;;;;;;;;;;4995536;28;20160;-77
2023/09/18 02:09:13;;;;;;;39.97;35.63;;;;;;;;;;5013437;28;20050;-77
2023/09/18 02:11:40;;;;;;;38.40;34.17;;;;;;;;;;5013224;28;20046;-78
2023/09/18 02:14:06;;;;;;;38.63;34.50;;;;;;;;;;4995385;28;20077;-77
2023/09/18 02:16:36;;;;;;;38.47;34.10;;;;;;;;;;5011170;28;20100;-75
2023/09/18 02:19:02;;;;;;;38.33;33.63;;;;;;;;;;4986049;28;20515;-75
2023/09/18 02:21:28;;;;;;;36.65;32.60;;;;;;;;;;4993364;28;20049;-77
2023/09/18 02:23:57;;;;;;;35.90;31.58;;;;;;;;;;4991658;28;20058;-76
2023/09/18 02:26:24;;;;;;;34.53;30.98;;;;;;;;;;4993598;28;20119;-77
2023/09/18 02:28:52;;;;;;;35.03;31.38;;;;;;;;;;5009520;28;20477;-76
2023/09/18 02:31:18;;;;;;;34.97;31.27;;;;;;;;;;5018109;28;20501;-76
2023/09/18 02:33:44;;;;;;;34.65;30.52;;;;;;;;;;5011156;28;20034;-77
2023/09/18 02:36:10;;;;;;;33.17;29.77;;;;;;;;;;4995194;28;20132;-76
2023/09/18 02:38:36;;;;;;;34.10;30.55;;;;;;;;;;4995406;28;20106;-78
2023/09/18 02:41:02;;;;;;;34.22;30.92;;;;;;;;;;5016468;28;20054;-78
2023/09/18 02:43:30;;;;;;;33.28;29.70;;;;;;;;;;5016231;28;20056;-78
2023/09/18 02:45:56;;;;;;;32.70;29.40;;;;;;;;;;4982649;28;20050;-78
2023/09/18 02:48:22;;;;;;;33.20;29.70;;;;;;;;;;5014227;28;20084;-77
2023/09/18 02:50:48;;;;;;;33.10;29.77;;;;;;;;;;5001824;28;20045;-78
2023/09/18 02:53:21;;;;;;;31.77;28.58;;;;;;;;;;5036099;28;20324;-78
2023/09/18 02:55:47;;;;;;;31.48;28.17;;;;;;;;;;5007551;28;20433;-77
2023/09/18 02:58:13;;;;;;;30.83;27.48;;;;;;;;;;5014960;28;20056;-77
2023/09/18 03:00:47;;;;;;;30.55;27.35;;;;;;;;;;4996794;28;20069;-77
2023/09/18 03:03:13;;;;;;;32.72;29.30;;;;;;;;;;4997700;28;20543;-77
2023/09/18 03:05:40;;;;;;;30.15;27.13;;;;;;;;;;4981757;28;20042;-77
2023/09/18 03:08:06;;;;;;;32.95;29.65;;;;;;;;;;4998155;28;20042;-77
2023/09/18 03:10:36;;;;;;;31.98;28.58;;;;;;;;;;5014454;28;20069;-77
2023/09/18 03:13:02;;;;;;;31.58;28.30;;;;;;;;;;4979032;28;20130;-77
2023/09/18 03:15:28;;;;;;;31.67;28.27;;;;;;;;;;4981757;28;20501;-77
2023/09/18 03:17:55;;;;;;;30.95;27.75;;;;;;;;;;4998181;28;20077;-77
2023/09/18 03:20:24;;;;;;;31.40;28.20;;;;;;;;;;4997020;28;20050;-77
2023/09/18 03:22:54;;;;;;;31.08;27.85;;;;;;;;;;5016659;28;20065;-77
2023/09/18 03:25:21;;;;;;;30.38;27.30;;;;;;;;;;5031003;28;20045;-76
2023/09/18 03:27:47;;;;;;;30.80;27.70;;;;;;;;;;4998585;28;20470;-77
2023/09/18 03:30:15;;;;;;;29.00;26.27;;;;;;;;;;5018426;28;20139;-76
2023/09/18 03:32:42;;;;;;;28.98;26.02;;;;;;;;;;5034694;28;20401;-76
2023/09/18 03:35:15;;;;;;;27.48;24.77;;;;;;;;;;5034182;28;20425;-77
2023/09/18 03:37:41;;;;;;;28.05;25.05;;;;;;;;;;5002013;28;20037;-77
2023/09/18 03:40:08;;;;;;;27.38;24.63;;;;;;;;;;5017004;28;20045;-77
2023/09/18 03:42:34;;;;;;;27.85;25.08;;;;;;;;;;5017195;28;20140;-77
2023/09/18 03:45:01;;;;;;;28.50;25.30;;;;;;;;;;5016944;28;20072;-77
2023/09/18 03:47:27;;;;;;;27.73;25.00;;;;;;;;;;5016865;28;20041;-77
2023/09/18 03:49:53;;;;;;;26.85;24.05;;;;;;;;;;5034868;28;20046;-78
2023/09/18 03:52:19;;;;;;;27.25;24.45;;;;;;;;;;5022981;28;20413;-77
2023/09/18 03:54:45;;;;;;;30.25;24.98;;;;;;;;;;4997774;28;20041;-77
2023/09/18 03:57:11;;;;;;;25.50;22.70;;;;;;;;;;5000324;28;20045;-77
2023/09/18 03:59:37;;;;;;;26.73;24.02;;;;;;;;;;5034645;28;20494;-78
2023/09/18 04:02:03;;;;;;;25.50;22.85;;;;;;;;;;5034860;28;20055;-77
2023/09/18 04:04:29;;;;;;;27.02;22.60;;;;;;;;;;5016608;28;20180;-77
2023/09/18 04:06:55;;;;;;;25.10;22.60;;;;;;;;;;5017125;28;20509;-77
2023/09/18 04:09:21;;;;;;;25.65;22.95;;;;;;;;;;5034607;28;20049;-77
2023/09/18 04:11:48;;;;;;;26.00;23.33;;;;;;;;;;5034664;28;20051;-77
2023/09/18 04:14:14;;;;;;;27.65;23.65;;;;;;;;;;5034351;28;20056;-78
2023/09/18 04:16:41;;;;;;;25.95;22.88;;;;;;;;;;5034470;28;20096;-77
2023/09/18 04:19:09;;;;;;;25.73;23.00;;;;;;;;;;5034610;28;20065;-77
2023/09/18 04:21:35;;;;;;;25.33;22.55;;;;;;;;;;5011619;28;20133;-76
2023/09/18 04:24:01;;;;;;;25.30;22.02;;;;;;;;;;5014052;28;20057;-76
2023/09/18 04:26:32;;;;;;;24.15;21.60;;;;;;;;;;5012959;28;20136;-76
2023/09/18 04:28:59;;;;;;;26.45;22.08;;;;;;;;;;5023372;28;20103;-77
2023/09/18 04:31:25;;;;;;;23.80;21.25;;;;;;;;;;5033368;28;20056;-76
2023/09/18 04:33:51;;;;;;;24.60;22.10;;;;;;;;;;5031958;28;20053;-76
2023/09/18 04:36:17;;;;;;;23.30;20.48;;;;;;;;;;5013270;28;20051;-76
2023/09/18 04:38:43;;;;;;;22.08;19.35;;;;;;;;;;5014767;28;20081;-77
2023/09/18 04:41:10;;;;;;;22.73;20.33;;;;;;;;;;5015847;28;20041;-77
2023/09/18 04:43:38;;;;;;;21.95;19.75;;;;;;;;;;5015890;28;20057;-76
2023/09/18 04:46:05;;;;;;;22.38;19.92;;;;;;;;;;5015680;28;20053;-77
2023/09/18 04:48:34;;;;;;;22.30;19.92;;;;;;;;;;5016104;28;20037;-76
2023/09/18 04:51:00;;;;;;;21.85;19.55;;;;;;;;;;5013242;28;20504;-76
2023/09/18 04:53:29;;;;;;;22.23;19.85;;;;;;;;;;5033022;28;20441;-76
2023/09/18 04:55:55;;;;;;;23.15;19.52;;;;;;;;;;5033160;28;20116;-77
2023/09/18 04:58:21;;;;;;;24.02;19.15;;;;;;;;;;4999383;28;20057;-77
2023/09/18 05:00:53;;;;;;;22.50;18.88;;;;;;;;;;5018176;28;20049;-74
2023/09/18 05:03:19;;;;;;;25.33;19.17;;;;;;;;;;5040712;28;20046;-74
2023/09/18 05:05:45;;;;;;;24.40;20.42;;;;;;;;;;5016974;28;20037;-76
2023/09/18 05:08:11;;;;;;;24.98;20.08;;;;;;;;;;5034136;28;20429;-76
2023/09/18 05:10:37;;;;;;;22.33;20.00;;;;;;;;;;5015320;28;20441;-77
2023/09/18 05:13:03;;;;;;;25.27;20.95;;;;;;;;;;5033406;28;20046;-76
2023/09/18 05:15:30;;;;;;;24.63;20.80;;;;;;;;;;5015676;28;20064;-76
2023/09/18 05:17:57;;;;;;;23.23;19.35;;;;;;;;;;5015813;28;20415;-78
2023/09/18 05:20:29;;;;;;;23.38;18.23;;;;;;;;;;5015861;28;20159;-78
2023/09/18 05:22:56;;;;;;;24.55;19.08;;;;;;;;;;5021120;28;20145;-77
2023/09/18 05:25:24;;;;;;;23.27;18.45;;;;;;;;;;5027106;28;20061;-76
2023/09/18 05:27:55;;;;;;;24.33;18.55;;;;;;;;;;5032517;28;20102;-76
2023/09/18 05:30:25;;;;;;;25.15;17.85;;;;;;;;;;5013280;28;20116;-77
2023/09/18 05:32:51;;;;;;;23.73;17.08;;;;;;;;;;5032232;28;20179;-77
2023/09/18 05:35:17;;;;;;;21.27;16.35;;;;;;;;;;5006132;28;20410;-75
2023/09/18 05:37:43;;;;;;;19.67;16.40;;;;;;;;;;5028551;28;20044;-76
2023/09/18 05:40:10;;;;;;;20.77;15.77;;;;;;;;;;5012581;28;20115;-76
2023/09/18 05:42:43;;;;;;;19.83;16.40;;;;;;;;;;5029568;28;20033;-78
2023/09/18 05:45:09;;;;;;;20.05;16.58;;;;;;;;;;5014772;28;20053;-77
2023/09/18 05:47:35;;;;;;;17.95;16.05;;;;;;;;;;5032570;28;20052;-77
2023/09/18 05:50:03;;;;;;;19.90;15.18;;;;;;;;;;5011534;28;20046;-78
2023/09/18 05:52:29;;;;;;;19.05;15.25;;;;;;;;;;5012866;28;20089;-77
2023/09/18 05:54:55;;;;;;;17.75;15.57;;;;;;;;;;4995022;28;20056;-77
2023/09/18 05:57:22;;;;;;;17.23;15.43;;;;;;;;;;4995218;28;20045;-78
2023/09/18 05:59:48;;;;;;;17.90;15.23;;;;;;;;;;5012576;28;20095;-77
2023/09/18 06:02:16;;;;;;;16.70;14.32;;;;;;;;;;5030602;28;20041;-77
2023/09/18 06:04:43;;;;;;;17.13;14.15;;;;;;;;;;5030806;28;20493;-76
2023/09/18 06:07:09;;;;;;;16.35;14.48;;;;;;;;;;5032117;28;20088;-77
2023/09/18 06:09:35;;;;;;;17.77;14.15;;;;;;;;;;5032059;28;20045;-77
2023/09/18 06:12:01;;;;;;;19.25;14.02;;;;;;;;;;5030030;28;20067;-78
2023/09/18 06:14:27;;;;;;;15.32;13.07;;;;;;;;;;5029915;28;20211;-76
2023/09/18 06:16:53;;;;;;;15.23;12.45;;;;;;;;;;5032058;28;20049;-78
2023/09/18 06:19:19;;;;;;;16.27;13.00;;;;;;;;;;5030586;28;20041;-77
2023/09/18 06:21:45;;;;;;;15.30;13.05;;;;;;;;;;5026892;28;20049;-78
2023/09/18 06:24:12;;;;;;;18.67;12.50;;;;;;;;;;5028250;28;20061;-78
2023/09/18 06:26:38;;;;;;;17.15;12.32;;;;;;;;;;5018781;28;20053;-77
2023/09/18 06:29:05;;;;;;;15.45;11.98;;;;;;;;;;5014456;28;20049;-75
2023/09/18 06:31:31;;;;;;;14.48;11.73;;;;;;;;;;4998753;28;20069;-76
2023/09/18 06:33:57;;;;;;;15.73;11.68;;;;;;;;;;5011761;28;20149;-78
2023/09/18 06:36:23;;;;;;;15.00;11.27;;;;;;;;;;5012671;28;20045;-77
2023/09/18 06:38:49;;;;;;;15.25;11.07;;;;;;;;;;5031327;28;20115;-77
2023/09/18 06:41:15;;;;;;;20.27;10.73;;;;;;;;;;5018380;28;20042;-77
2023/09/18 06:43:41;;;;;;;16.30;11.20;;;;;;;;;;5012084;28;20065;-78
2023/09/18 06:46:07;;;;;;;12.65;10.10;;;;;;;;;;4994528;28;20046;-77
2023/09/18 06:48:34;;;;;;;15.68;9.82;;;;;;;;;;5012020;28;20124;-77
2023/09/18 06:51:00;;;;;;;17.35;9.93;;;;;;;;;;4994273;28;20116;-78
2023/09/18 06:53:30;;;;;;;16.02;10.00;;;;;;;;;;5019373;28;20049;-78
2023/09/18 06:55:56;;;;;;;13.90;9.57;;;;;;;;;;5013595;28;20042;-78
2023/09/18 06:58:22;;;;;;;14.27;9.75;;;;;;;;;;5032290;28;20344;-77
2023/09/18 07:00:50;;;;;;;13.13;9.27;;;;;;;;;;5014105;28;20132;-77
2023/09/18 07:03:17;;;;;;;16.10;10.80;;;;;;;;;;5031957;28;20049;-77
2023/09/18 07:05:44;;;;;;;15.20;11.45;;;;;;;;;;4997005;28;20057;-77
2023/09/18 07:08:11;;;;;;;16.08;11.65;;;;;;;;;;5030988;28;20053;-77
2023/09/18 07:10:38;;;;;;;14.82;12.23;;;;;;;;;;5024821;28;20124;-77
2023/09/18 07:13:04;;;;;;;17.65;13.18;;;;;;;;;;5031691;28;20049;-77
2023/09/18 07:15:33;;;;;;;18.98;12.70;;;;;;;;;;5031761;28;20052;-78
2023/09/18 07:17:59;;;;;;;17.85;13.43;;;;;;;;;;5031901;28;20048;-78
2023/09/18 07:20:25;;;;;;;16.80;13.15;;;;;;;;;;5019872;28;20450;-77
2023/09/18 07:22:55;;;;;;;22.20;14.27;;;;;;;;;;5015476;28;20045;-77
2023/09/18 07:25:21;;;;;;;19.15;14.23;;;;;;;;;;5031129;28;20415;-78
2023/09/18 07:27:47;;;;;;;17.90;13.90;;;;;;;;;;5034325;28;20084;-76
2023/09/18 07:30:19;;;;;;;21.65;14.15;;;;;;;;;;5033606;28;20049;-77
2023/09/18 07:32:45;;;;;;;19.33;14.50;;;;;;;;;;5032646;28;20187;-77
2023/09/18 07:35:13;;;;;;;27.92;16.98;;;;;;;;;;5034900;28;20528;-78
2023/09/18 07:37:39;;;;;;;25.80;17.38;;;;;;;;;;5035856;28;20041;-78
2023/09/18 07:40:08;;;;;;;24.48;17.40;;;;;;;;;;5036096;28;20045;-77
2023/09/18 07:42:34;;;;;;;25.13;18.23;;;;;;;;;;5034717;28;20505;-78
2023/09/18 07:45:00;;;;;;;26.13;17.85;;;;;;;;;;5034247;28;20049;-78
2023/09/18 07:47:26;;;;;;;28.30;19.50;;;;;;;;;;5034539;28;20042;-78
2023/09/18 07:49:54;;;;;;;28.15;20.90;;;;;;;;;;5014308;28;20054;-77
2023/09/18 07:52:20;;;;;;;27.55;19.50;;;;;;;;;;5034357;28;20045;-77
2023/09/18 07:54:46;;;;;;;28.55;21.23;;;;;;;;;;5034581;28;20452;-78
2023/09/18 07:57:14;;;;;;;25.15;20.55;;;;;;;;;;5035114;28;20054;-82
2023/09/18 07:59:42;;;;;;;25.80;20.35;;;;;;;;;;5000206;28;20042;-84
2023/09/18 08:02:11;;;;;;;27.20;19.52;;;;;;;;;;5005889;28;20179;-84
2023/09/18 08:04:44;;;;;;;27.70;20.95;;;;;;;;;;5004616;28;20096;-84
2023/09/18 08:07:12;;;;;;;29.85;21.77;;;;;;;;;;5017156;28;20076;-82
2023/09/18 08:09:38;;;;;;;27.83;20.55;;;;;;;;;;5017398;28;20046;-81
2023/09/18 08:12:05;;;;;;;23.02;19.20;;;;;;;;;;5018051;28;20034;-81
2023/09/18 08:14:31;;;;;;;25.35;19.85;;;;;;;;;;5010147;28;20049;-82
2023/09/18 08:17:02;;;;;;;22.85;18.52;;;;;;;;;;5030193;28;20045;-82
2023/09/18 08:19:28;;;;;;;22.52;18.38;;;;;;;;;;5032497;28;20052;-83
2023/09/18 08:21:59;;;;;;;26.42;19.55;;;;;;;;;;5001523;28;20033;-82
2023/09/18 08:24:26;;;;;;;22.70;17.20;;;;;;;;;;5018105;28;20371;-81
2023/09/18 08:26:53;;;;;;;22.63;17.15;;;;;;;;;;5020196;28;20186;-81
2023/09/18 08:29:20;;;;;;;20.50;16.90;;;;;;;;;;5002661;28;20436;-80
2023/09/18 08:31:46;;;;;;;20.58;17.23;;;;;;;;;;5019142;28;20033;-81
2023/09/18 08:34:12;;;;;;;22.00;17.23;;;;;;;;;;5021569;28;20076;-82
2023/09/18 08:36:38;;;;;;;19.17;17.13;;;;;;;;;;5020325;28;20053;-82
2023/09/18 08:39:05;;;;;;;18.70;15.73;;;;;;;;;;5017199;28;20056;-82
2023/09/18 08:41:32;;;;;;;18.80;15.70;;;;;;;;;;5017427;28;20132;-81
2023/09/18 08:44:03;;;;;;;19.83;15.70;;;;;;;;;;5014553;28;20060;-82
2023/09/18 08:46:29;;;;;;;20.52;15.15;;;;;;;;;;5011998;28;20249;-82
2023/09/18 08:48:56;;;;;;;19.08;14.77;;;;;;;;;;4998396;28;20048;-82
2023/09/18 08:51:23;;;;;;;21.17;15.32;;;;;;;;;;4993722;28;20049;-82
2023/09/18 08:53:50;;;;;;;20.60;15.48;;;;;;;;;;5023158;28;20057;-82
2023/09/18 08:56:17;;;;;;;20.15;14.65;;;;;;;;;;4998221;28;20061;-83
2023/09/18 08:58:44;;;;;;;19.92;15.38;;;;;;;;;;4998912;28;20061;-82
2023/09/18 09:01:10;;;;;;;21.45;15.80;;;;;;;;;;5001064;28;20075;-82
2023/09/18 09:03:41;;;;;;;22.20;15.70;;;;;;;;;;5016030;28;20055;-81
2023/09/18 09:06:09;;;;;;;18.45;16.30;;;;;;;;;;5016543;28;20053;-81
2023/09/18 09:08:35;;;;;;;18.73;15.15;;;;;;;;;;4998768;28;20040;-81
2023/09/18 09:11:01;;;;;;;22.83;16.08;;;;;;;;;;5017821;28;20379;-81
2023/09/18 09:13:27;;;;;;;18.42;15.60;;;;;;;;;;5011476;28;20045;-83
2023/09/18 09:15:57;;;;;;;20.90;15.43;;;;;;;;;;5016204;28;20045;-82
2023/09/18 09:18:24;;;;;;;18.70;15.23;;;;;;;;;;5014176;28;20092;-83
2023/09/18 09:20:58;;;;;;;22.02;15.50;;;;;;;;;;5015696;28;20163;-83
2023/09/18 09:23:30;;;;;;;19.65;15.52;;;;;;;;;;5013057;28;20060;-83
2023/09/18 09:26:15;;;;;;;19.30;14.80;;;;;;;;;;4996039;28;20138;-82
2023/09/18 09:28:43;;;;;;;18.75;14.73;;;;;;;;;;5010285;28;20045;-82
2023/09/18 09:31:10;;;;;;;19.38;15.52;;;;;;;;;;5031623;28;20088;-83
2023/09/18 09:33:41;;;;;;;18.30;14.27;;;;;;;;;;5016384;28;20402;-82
2023/09/18 09:36:07;;;;;;;19.10;15.05;;;;;;;;;;5016210;28;20412;-82
2023/09/18 09:38:34;;;;;;;18.02;14.43;;;;;;;;;;5032062;28;20049;-82
2023/09/18 09:41:01;;;;;;;16.95;14.63;;;;;;;;;;5016197;28;20401;-83
2023/09/18 09:43:32;;;;;;;17.83;14.75;;;;;;;;;;5031991;28;20136;-81
2023/09/18 09:45:59;;;;;;;19.63;15.27;;;;;;;;;;5032321;28;20411;-82
2023/09/18 09:48:25;;;;;;;17.42;14.23;;;;;;;;;;5031022;28;20045;-82
2023/09/18 09:50:53;;;;;;;18.27;15.40;;;;;;;;;;5008058;28;20037;-83
2023/09/18 09:53:19;;;;;;;18.55;14.55;;;;;;;;;;4993281;28;20076;-82
2023/09/18 09:55:45;;;;;;;18.00;15.35;;;;;;;;;;4997313;28;20091;-81
2023/09/18 09:58:13;;;;;;;16.95;14.65;;;;;;;;;;5014755;28;20051;-82
2023/09/18 10:00:49;;;;;;;17.67;14.80;;;;;;;;;;4999214;28;20045;-82
2023/09/18 10:03:17;;;;;;;16.70;14.55;;;;;;;;;;5018834;28;20045;-82
2023/09/18 10:05:45;;;;;;;16.98;15.20;;;;;;;;;;5018250;28;20084;-81
2023/09/18 10:08:12;;;;;;;16.65;14.85;;;;;;;;;;5016966;28;20121;-83
2023/09/18 10:10:40;;;;;;;18.40;15.52;;;;;;;;;;4998797;28;20061;-82
2023/09/18 10:13:12;;;;;;;19.13;15.90;;;;;;;;;;4998375;28;20049;-82
2023/09/18 10:15:42;;;;;;;22.85;16.65;;;;;;;;;;4998970;28;20053;-82
2023/09/18 10:18:17;;;;;;;22.00;16.48;;;;;;;;;;4998797;28;20128;-82
2023/09/18 10:20:45;;;;;;;17.67;15.87;;;;;;;;;;5001497;28;20038;-82
2023/09/18 10:23:34;;;;;;;19.67;16.70;;;;;;;;;;5005543;28;20062;-81
2023/09/18 10:26:03;;;;;;;19.80;17.35;;;;;;;;;;4995767;28;20053;-82
2023/09/18 10:28:31;;;;;;;18.00;16.05;;;;;;;;;;4994943;28;20038;-82
2023/09/18 10:30:58;;;;;;;19.30;16.70;;;;;;;;;;5012104;28;20050;-82
2023/09/18 10:33:25;;;;;;;18.80;16.45;;;;;;;;;;5027731;28;20041;-82
2023/09/18 10:35:53;;;;;;;17.80;15.90;;;;;;;;;;5015339;28;20049;-82
2023/09/18 10:38:19;;;;;;;18.95;15.80;;;;;;;;;;5031738;28;20049;-82
2023/09/18 10:40:48;;;;;;;17.15;15.18;;;;;;;;;;5030009;28;20045;-82
2023/09/18 10:43:16;;;;;;;16.40;13.68;;;;;;;;;;5030944;28;20041;-82
2023/09/18 10:45:44;;;;;;;14.73;12.98;;;;;;;;;;5029792;28;20049;-82
2023/09/18 10:48:10;;;;;;;14.75;11.75;;;;;;;;;;5027381;28;20241;-81
2023/09/18 10:50:36;;;;;;;13.88;11.40;;;;;;;;;;5012534;28;20120;-79
2023/09/18 10:53:03;;;;;;;15.10;10.60;;;;;;;;;;5019565;28;20037;-78
2023/09/18 10:55:29;;;;;;;12.45;9.75;;;;;;;;;;5031229;28;20107;-77
2023/09/18 10:57:56;;;;;;;13.18;9.38;;;;;;;;;;5033154;28;20045;-78
2023/09/18 11:00:25;;;;;;;9.88;8.35;;;;;;;;;;5032960;28;20413;-78
2023/09/18 11:02:55;;;;;;;11.07;7.93;;;;;;;;;;5014763;28;20111;-75
2023/09/18 11:05:31;;;;;;;11.02;8.23;;;;;;;;;;5014321;28;20517;-75
2023/09/18 11:08:16;;;;;;;9.05;7.07;;;;;;;;;;5014541;28;20529;-76
2023/09/18 11:10:55;;;;;;;8.97;6.73;;;;;;;;;;5032484;28;20048;-75
2023/09/18 11:13:42;;;;;;;9.23;7.05;;;;;;;;;;5031884;28;20072;-74
2023/09/18 11:16:26;;;;;;;10.98;6.40;;;;;;;;;;5032185;28;20053;-74
2023/09/18 11:18:53;;;;;;;8.48;6.40;;;;;;;;;;5031920;28;20049;-74
2023/09/18 11:21:24;;;;;;;7.43;5.35;;;;;;;;;;5016941;28;20120;-74
2023/09/18 11:23:57;;;;;;;6.93;5.30;;;;;;;;;;5029106;28;20053;-75
2023/09/18 11:26:23;;;;;;;7.50;5.00;;;;;;;;;;5031945;28;20124;-75
2023/09/18 11:28:50;;;;;;;7.78;5.43;;;;;;;;;;5031743;28;20045;-76
2023/09/18 11:31:16;;;;;;;6.57;5.43;;;;;;;;;;5032414;28;20051;-75
2023/09/18 11:33:44;;;;;;;8.57;5.25;;;;;;;;;;4998142;28;20402;-75
2023/09/18 11:36:15;;;;;;;7.22;4.70;;;;;;;;;;5014464;28;20053;-75
2023/09/18 11:38:54;;;;;;;7.55;4.90;;;;;;;;;;5031794;28;20095;-75
2023/09/18 11:41:25;;;;;;;9.02;4.82;;;;;;;;;;5031853;28;20421;-75
2023/09/18 11:43:51;;;;;;;9.10;4.57;;;;;;;;;;5031447;28;20139;-76
2023/09/18 11:46:20;;;;;;;7.25;4.25;;;;;;;;;;5013740;28;20107;-76
2023/09/18 11:48:50;;;;;;;7.05;4.55;;;;;;;;;;5031530;28;20045;-75
2023/09/18 11:51:21;;;;;;;7.13;4.68;;;;;;;;;;5028623;28;20534;-75
2023/09/18 11:53:48;;;;;;;6.25;4.35;;;;;;;;;;5028191;28;20085;-74
2023/09/18 11:56:18;;;;;;;6.68;4.30;;;;;;;;;;5028276;28;20056;-75
2023/09/18 11:58:51;;;;;;;8.70;4.40;;;;;;;;;;5030055;28;20045;-75
2023/09/18 12:01:18;;;;;;;6.68;4.40;;;;;;;;;;5031498;28;20533;-74
2023/09/18 12:03:45;;;;;;;10.00;4.70;;;;;;;;;;5030967;28;20103;-76
2023/09/18 12:06:15;;;;;;;6.13;4.25;;;;;;;;;;5031339;28;20045;-75
2023/09/18 12:08:41;;;;;;;6.25;4.60;;;;;;;;;;5034080;28;20374;-75
2023/09/18 12:11:08;;;;;;;7.72;4.10;;;;;;;;;;5037262;28;20060;-73
2023/09/18 12:13:34;;;;;;;6.60;4.13;;;;;;;;;;5021205;28;20037;-74
2023/09/18 12:16:01;;;;;;;9.55;4.00;;;;;;;;;;5036619;28;20091;-75
2023/09/18 12:18:31;;;;;;;5.65;4.00;;;;;;;;;;5033642;28;20050;-75
2023/09/18 12:20:58;;;;;;;7.18;3.85;;;;;;;;;;5017855;28;20045;-75
2023/09/18 12:23:25;;;;;;;6.57;3.92;;;;;;;;;;4996356;28;20050;-74
2023/09/18 12:25:56;;;;;;;7.85;4.00;;;;;;;;;;4994975;28;20049;-75
2023/09/18 12:28:23;;;;;;;6.90;3.88;;;;;;;;;;4996949;28;20038;-75
2023/09/18 12:30:52;;;;;;;8.50;3.80;;;;;;;;;;5014664;28;20041;-75
2023/09/18 12:33:19;;;;;;;6.53;4.07;;;;;;;;;;5013990;28;20050;-75
2023/09/18 12:35:46;;;;;;;7.85;3.80;;;;;;;;;;4995917;28;20112;-75
2023/09/18 12:38:16;;;;;;;5.78;3.78;;;;;;;;;;5010542;28;20121;-75
2023/09/18 12:40:44;;;;;;;6.88;3.88;;;;;;;;;;5010905;28;20133;-75
2023/09/18 12:43:10;;;;;;;6.45;3.70;;;;;;;;;;4993623;28;20038;-76
2023/09/18 12:45:36;;;;;;;7.15;3.90;;;;;;;;;;4993325;28;20093;-76
2023/09/18 12:48:03;;;;;;;6.68;3.72;;;;;;;;;;5010261;28;20101;-75
2023/09/18 12:50:29;;;;;;;6.68;3.75;;;;;;;;;;5009774;28;20053;-75
2023/09/18 12:53:12;;;;;;;9.13;4.10;;;;;;;;;;5008800;28;20494;-76
2023/09/18 12:55:38;;;;;;;7.07;4.10;;;;;;;;;;4991219;28;20085;-76
2023/09/18 12:58:05;;;;;;;4.97;3.35;;;;;;;;;;4991508;28;20049;-76
2023/09/18 13:00:31;;;;;;;9.65;3.85;;;;;;;;;;4991206;28;20094;-75
2023/09/18 13:02:57;;;;;;;6.78;3.63;;;;;;;;;;4989688;28;20042;-75
2023/09/18 13:05:25;;;;;;;5.35;3.40;;;;;;;;;;4990740;28;20140;-76
2023/09/18 13:07:52;;;;;;;8.73;3.70;;;;;;;;;;4973257;28;20054;-76
2023/09/18 13:10:19;;;;;;;7.32;3.80;;;;;;;;;;4993878;28;20058;-77
2023/09/18 13:12:53;;;;;;;6.55;3.53;;;;;;;;;;5013722;28;20050;-77
2023/09/18 13:15:29;;;;;;;6.72;3.58;;;;;;;;;;5011324;28;20064;-78
2023/09/18 13:17:55;;;;;;;5.75;3.90;;;;;;;;;;5010017;28;20549;-77
2023/09/18 13:20:26;;;;;;;7.78;3.92;;;;;;;;;;5012354;28;20077;-75
2023/09/18 13:22:53;;;;;;;9.15;4.03;;;;;;;;;;5017861;28;20402;-78
2023/09/18 13:25:23;;;;;;;5.13;3.20;;;;;;;;;;5031792;28;20524;-76
2023/09/18 13:27:54;;;;;;;8.27;3.95;;;;;;;;;;5033666;28;20175;-77
2023/09/18 13:30:21;;;;;;;7.63;4.00;;;;;;;;;;5032244;28;20120;-77
2023/09/18 13:32:48;;;;;;;7.60;3.60;;;;;;;;;;5013255;28;20072;-78
2023/09/18 13:35:14;;;;;;;5.55;3.60;;;;;;;;;;5031623;28;20045;-78
2023/09/18 13:37:41;;;;;;;7.65;3.90;;;;;;;;;;5014146;28;20125;-78
2023/09/18 13:40:08;;;;;;;6.30;3.67;;;;;;;;;;4999601;28;20060;-78
2023/09/18 13:42:35;;;;;;;7.30;3.60;;;;;;;;;;5030759;28;20489;-76
2023/09/18 13:45:01;;;;;;;8.35;3.75;;;;;;;;;;5009519;28;20060;-78
2023/09/18 13:47:27;;;;;;;7.15;3.50;;;;;;;;;;5032595;28;20121;-78
2023/09/18 13:49:56;;;;;;;6.03;3.33;;;;;;;;;;5011415;28;20128;-78
2023/09/18 13:52:23;;;;;;;7.65;3.40;;;;;;;;;;5013075;28;20498;-78
2023/09/18 13:54:51;;;;;;;7.47;3.50;;;;;;;;;;4995166;28;20406;-78
2023/09/18 13:57:18;;;;;;;5.40;3.10;;;;;;;;;;5011433;28;20068;-78
2023/09/18 13:59:44;;;;;;;6.28;3.28;;;;;;;;;;4996430;28;20072;-77
2023/09/18 14:02:11;;;;;;;6.00;3.30;;;;;;;;;;5031729;28;20049;-78
2023/09/18 14:04:37;;;;;;;6.97;3.33;;;;;;;;;;5011480;28;20395;-78
2023/09/18 14:07:03;;;;;;;5.47;3.33;;;;;;;;;;5031349;28;20116;-79
2023/09/18 14:09:30;;;;;;;5.82;3.40;;;;;;;;;;4989949;28;20352;-78
2023/09/18 14:11:56;;;;;;;8.43;3.30;;;;;;;;;;4994241;28;20053;-78
2023/09/18 14:14:25;;;;;;;4.75;3.47;;;;;;;;;;5010595;28;20085;-79
2023/09/18 14:16:51;;;;;;;7.03;3.60;;;;;;;;;;5010166;28;20053;-78
2023/09/18 14:19:18;;;;;;;5.15;3.53;;;;;;;;;;5010582;28;20509;-78
2023/09/18 14:21:44;;;;;;;5.75;3.20;;;;;;;;;;5010064;28;20041;-79
2023/09/18 14:24:11;;;;;;;6.03;3.50;;;;;;;;;;4989446;28;20505;-79
2023/09/18 14:26:40;;;;;;;5.53;3.40;;;;;;;;;;4990219;28;20594;-77